Time;durP1;ratioP1;P1;durP2;ratioP2;P2;SDS_P1;SDS_P2;PMS_P1;PMS_P2;Temp;Humidity;BMP_temperature;BMP_pressure;BME280_temperature;BME280_humidity;BME280_pressure;Samples;Min_cycle;Max_cycle;Signal;HPM_P1;HPM_P2
2022/08/31 00:05:23;;;;;;;;;;;;;;;24.25;51.33;99902.37;4382587;32;36585;-79
2022/08/31 00:07:50;;;;;;;;;;;;;;;24.25;50.71;99906.78;4383503;32;37874;-79
2022/08/31 00:10:19;;;;;;;;;;;;;;;24.28;50.04;99898.72;4384245;32;38152;-79
2022/08/31 00:13:02;;;;;;;;;;;;;;;24.30;50.12;99905.69;4386562;32;39470;-80
2022/08/31 00:15:30;;;;;;;;;;;;;;;24.10;50.75;99908.25;4384704;32;37605;-80
2022/08/31 00:17:57;;;;;;;;;;;;;;;24.09;51.18;99907.38;4386231;32;37807;-80
2022/08/31 00:20:26;;;;;;;;;;;;;;;24.19;51.55;99907.03;4385350;32;37693;-79
2022/08/31 00:23:04;;;;;;;;;;;;;;;24.16;51.67;99904.50;4384289;32;38768;-80
2022/08/31 00:25:32;;;;;;;;;;;;;;;24.08;51.66;99910.94;4384006;32;36837;-80
2022/08/31 00:28:00;;;;;;;;;;;;;;;24.18;51.56;99910.59;4383612;32;38750;-80
2022/08/31 00:30:28;;;;;;;;;;;;;;;24.11;51.69;99905.53;4385787;32;37902;-80
2022/08/31 00:32:55;;;;;;;;;;;;;;;24.17;50.83;99907.09;4383968;32;39824;-80
2022/08/31 00:35:25;;;;;;;;;;;;;;;24.11;51.29;99910.81;4383637;32;37386;-80
2022/08/31 00:37:52;;;;;;;;;;;;;;;24.17;51.14;99914.16;4383394;32;36745;-79
2022/08/31 00:40:20;;;;;;;;;;;;;;;24.11;50.47;99904.66;4383334;32;37425;-81
2022/08/31 00:42:48;;;;;;;;;;;;;;;24.05;50.54;99911.06;4383281;32;39229;-80
2022/08/31 00:45:15;;;;;;;;;;;;;;;24.08;50.74;99910.94;4384964;32;36681;-80
2022/08/31 00:47:43;;;;;;;;;;;;;;;24.09;50.72;99910.03;4384613;32;38231;-80
2022/08/31 00:50:11;;;;;;;;;;;;;;;23.85;51.50;99913.59;4378147;32;38474;-79
2022/08/31 00:52:39;;;;;;;;;;;;;;;24.05;51.21;99916.34;4384677;32;38223;-79
2022/08/31 00:55:08;;;;;;;;;;;;;;;23.97;51.10;99914.94;4385277;32;36789;-80
2022/08/31 00:57:37;;;;;;;;;;;;;;;23.78;52.13;99912.97;4376526;32;37901;-79
2022/08/31 01:00:06;;;;;;;;;;;;;;;23.82;51.95;99913.72;4384963;32;38847;-80
2022/08/31 01:02:33;;;;;;;;;;;;;;;23.82;51.75;99919.00;4384024;32;40197;-80
2022/08/31 01:05:00;;;;;;;;;;;;;;;23.74;52.48;99918.41;4384570;32;36985;-80
2022/08/31 01:07:28;;;;;;;;;;;;;;;23.83;51.98;99920.72;4371452;32;39011;-80
2022/08/31 01:09:55;;;;;;;;;;;;;;;23.74;52.20;99926.34;4387406;32;38412;-80
2022/08/31 01:12:23;;;;;;;;;;;;;;;23.70;52.51;99924.72;4396704;32;38241;-80
2022/08/31 01:14:52;;;;;;;;;;;;;;;23.58;52.65;99932.16;4384634;32;37362;-80
2022/08/31 01:17:20;;;;;;;;;;;;;;;23.52;53.01;99921.81;4378457;32;38223;-79
2022/08/31 01:19:56;;;;;;;;;;;;;;;23.58;52.69;99920.72;4384546;32;37222;-80
2022/08/31 01:22:36;;;;;;;;;;;;;;;23.61;52.82;99926.78;4383207;32;38705;-80
2022/08/31 01:25:03;;;;;;;;;;;;;;;23.57;52.96;99930.41;4383118;32;36091;-80
2022/08/31 01:27:31;;;;;;;;;;;;;;;23.38;53.69;99924.94;4382782;32;38535;-80
2022/08/31 01:29:59;;;;;;;;;;;;;;;23.54;52.68;99929.69;4384630;32;38739;-80
2022/08/31 01:32:27;;;;;;;;;;;;;;;23.45;52.96;99930.84;4386026;32;39510;-80
2022/08/31 01:34:55;;;;;;;;;;;;;;;23.34;53.48;99935.66;4384249;32;37838;-80
2022/08/31 01:37:22;;;;;;;;;;;;;;;23.41;53.02;99937.19;4381943;32;37997;-81
2022/08/31 01:39:56;;;;;;;;;;;;;;;23.48;53.40;99933.37;4384680;32;38907;-80
2022/08/31 01:42:23;;;;;;;;;;;;;;;23.20;53.90;99936.16;4382884;32;38320;-80
2022/08/31 01:45:01;;;;;;;;;;;;;;;23.21;53.69;99928.16;4384095;32;36686;-79
2022/08/31 01:47:28;;;;;;;;;;;;;;;23.32;53.33;99929.56;4384290;32;38701;-80
2022/08/31 01:49:56;;;;;;;;;;;;;;;23.21;54.10;99933.44;4387774;32;38191;-80
2022/08/31 01:52:25;;;;;;;;;;;;;;;23.13;54.50;99940.78;4375232;32;38779;-80
2022/08/31 01:54:54;;;;;;;;;;;;;;;23.25;54.08;99933.34;4397096;32;36785;-80
2022/08/31 01:57:21;;;;;;;;;;;;;;;23.20;53.94;99930.88;4384508;32;38017;-80
2022/08/31 02:00:03;;;;;;;;;;;;;;;23.19;54.21;99927.34;4384627;32;38908;-80
2022/08/31 02:02:40;;;;;;;;;;;;;;;23.23;54.24;99935.16;4383350;32;38905;-80
2022/08/31 02:05:10;;;;;;;;;;;;;;;23.11;54.55;99937.31;4384741;32;37918;-80
2022/08/31 02:07:38;;;;;;;;;;;;;;;23.23;54.24;99935.16;4384898;32;38182;-80
2022/08/31 02:10:05;;;;;;;;;;;;;;;23.14;54.30;99926.66;4378680;32;38930;-80
2022/08/31 02:12:34;;;;;;;;;;;;;;;23.09;54.24;99933.88;4384579;32;38955;-80
2022/08/31 02:15:01;;;;;;;;;;;;;;;23.14;54.36;99926.66;4383995;32;36397;-79
2022/08/31 02:17:28;;;;;;;;;;;;;;;23.12;54.13;99932.91;4374293;32;38053;-79
2022/08/31 02:19:55;;;;;;;;;;;;;;;23.12;54.24;99928.47;4383609;32;37963;-79
2022/08/31 02:22:23;;;;;;;;;;;;;;;22.91;54.77;99924.78;4386055;32;38884;-79
2022/08/31 02:24:53;;;;;;;;;;;;;;;22.94;54.81;99918.53;4381446;32;37512;-80
2022/08/31 02:27:24;;;;;;;;;;;;;;;23.04;54.50;99917.34;4384651;32;38811;-80
2022/08/31 02:29:51;;;;;;;;;;;;;;;22.96;54.84;99911.44;4385970;32;37261;-80
2022/08/31 02:32:20;;;;;;;;;;;;;;;23.04;54.65;99909.41;4384290;32;39451;-80
2022/08/31 02:34:47;;;;;;;;;;;;;;;23.07;54.63;99917.22;4384180;32;36760;-80
2022/08/31 02:37:15;;;;;;;;;;;;;;;22.95;54.90;99915.00;4386192;32;39089;-80
2022/08/31 02:39:43;;;;;;;;;;;;;;;22.98;54.65;99915.75;4384001;32;38570;-80
2022/08/31 02:42:11;;;;;;;;;;;;;;;22.89;54.95;99921.31;4386102;32;38933;-80
2022/08/31 02:44:38;;;;;;;;;;;;;;;22.91;54.92;99923.88;4384409;32;36468;-80
2022/08/31 02:47:06;;;;;;;;;;;;;;;22.81;55.07;99922.47;4384253;32;38272;-80
2022/08/31 02:49:33;;;;;;;;;;;;;;;22.90;54.47;99916.87;4351586;32;39330;-79
2022/08/31 02:52:01;;;;;;;;;;;;;;;22.93;54.57;99916.78;4344177;32;38186;-80
2022/08/31 02:54:28;;;;;;;;;;;;;;;22.95;54.41;99912.34;4339343;32;37351;-80
2022/08/31 02:56:55;;;;;;;;;;;;;;;22.84;54.97;99919.72;4349716;32;38544;-80
2022/08/31 02:59:23;;;;;;;;;;;;;;;22.74;55.22;99912.09;4353868;32;37924;-80
2022/08/31 03:01:51;;;;;;;;;;;;;;;22.84;55.16;99911.81;4354314;32;38380;-80
2022/08/31 03:04:19;;;;;;;;;;;;;;;22.72;55.43;99913.94;4354116;32;37058;-80
2022/08/31 03:06:46;;;;;;;;;;;;;;;22.72;55.24;99913.94;4362549;32;38060;-80
2022/08/31 03:09:14;;;;;;;;;;;;;;;22.71;55.12;99914.84;4368746;32;38197;-79
2022/08/31 03:11:42;;;;;;;;;;;;;;;22.71;54.98;99912.19;4368671;32;38523;-79
2022/08/31 03:14:10;;;;;;;;;;;;;;;22.74;54.87;99916.53;4374645;32;37017;-79
2022/08/31 03:16:40;;;;;;;;;;;;;;;22.69;55.12;99919.31;4384078;32;38841;-79
2022/08/31 03:19:08;;;;;;;;;;;;;;;22.74;54.78;99917.37;4382683;32;38178;-79
2022/08/31 03:21:35;;;;;;;;;;;;;;;22.57;55.47;99925.00;4381934;32;38100;-79
2022/08/31 03:24:03;;;;;;;;;;;;;;;22.63;55.24;99914.25;4383998;32;37761;-79
2022/08/31 03:26:30;;;;;;;;;;;;;;;22.60;55.19;99918.75;4376729;32;38348;-79
2022/08/31 03:28:57;;;;;;;;;;;;;;;22.74;54.68;99917.37;4384095;32;37932;-79
2022/08/31 03:31:26;;;;;;;;;;;;;;;22.77;54.70;99920.84;4384441;32;37437;-79
2022/08/31 03:33:54;;;;;;;;;;;;;;;22.66;54.96;99914.16;4383171;32;36640;-80
2022/08/31 03:36:22;;;;;;;;;;;;;;;22.65;54.66;99916.81;4382016;32;39602;-80
2022/08/31 03:38:49;;;;;;;;;;;;;;;22.57;54.98;99930.28;4385356;32;38451;-79
2022/08/31 03:41:19;;;;;;;;;;;;;;;22.34;55.74;99927.50;4383843;32;38057;-79
2022/08/31 03:43:46;;;;;;;;;;;;;;;22.41;55.37;99929.03;4385357;32;36969;-79
2022/08/31 03:46:14;;;;;;;;;;;;;;;22.35;55.60;99931.84;4383520;32;37435;-79
2022/08/31 03:48:42;;;;;;;;;;;;;;;22.60;54.32;99930.19;4382543;32;38555;-79
2022/08/31 03:51:09;;;;;;;;;;;;;;;22.31;55.46;99917.91;4389111;32;38331;-79
2022/08/31 03:53:36;;;;;;;;;;;;;;;22.40;55.23;99922.00;4385399;32;38230;-80
2022/08/31 03:56:07;;;;;;;;;;;;;;;22.33;55.32;99920.47;4385351;32;37743;-79
2022/08/31 03:58:35;;;;;;;;;;;;;;;22.21;55.65;99917.31;4385643;32;38930;-79
2022/08/31 04:01:02;;;;;;;;;;;;;;;22.18;55.47;99914.78;4387047;32;39515;-79
2022/08/31 04:03:34;;;;;;;;;;;;;;;22.26;55.12;99918.03;4370492;32;36518;-79
2022/08/31 04:06:07;;;;;;;;;;;;;;;22.35;54.91;99916.87;4381176;32;37530;-79
2022/08/31 04:08:37;;;;;;;;;;;;;;;22.16;55.66;99929.78;4370388;32;38922;-79
2022/08/31 04:11:13;;;;;;;;;;;;;;;22.24;55.26;99925.13;4370279;32;37609;-79
2022/08/31 04:13:43;;;;;;;;;;;;;;;22.00;55.98;99929.31;4370626;32;35897;-79
2022/08/31 04:16:14;;;;;;;;;;;;;;;22.08;55.50;99925.59;4373371;32;38383;-79
2022/08/31 04:18:44;;;;;;;;;;;;;;;22.11;55.52;99931.63;4384185;32;37126;-79
2022/08/31 04:21:16;;;;;;;;;;;;;;;22.13;55.50;99932.47;4386934;32;40510;-80
2022/08/31 04:23:43;;;;;;;;;;;;;;;22.20;55.23;99931.41;4385011;32;38408;-80
2022/08/31 04:26:15;;;;;;;;;;;;;;;21.88;56.36;99931.44;4385099;32;38202;-80
2022/08/31 04:28:42;;;;;;;;;;;;;;;21.94;56.10;99928.66;4386807;32;38690;-80
2022/08/31 04:31:09;;;;;;;;;;;;;;;22.00;56.00;99928.47;4386867;32;38566;-80
2022/08/31 04:33:41;;;;;;;;;;;;;;;22.10;55.71;99929.91;4385077;32;37286;-80
2022/08/31 04:36:09;;;;;;;;;;;;;;;22.07;55.76;99930.00;4382162;32;38559;-81
2022/08/31 04:38:37;;;;;;;;;;;;;;;22.04;55.54;99924.81;4385590;32;37957;-79
2022/08/31 04:41:11;;;;;;;;;;;;;;;22.11;55.76;99929.00;4385346;32;38236;-80
2022/08/31 04:43:39;;;;;;;;;;;;;;;22.11;56.21;99931.63;4385502;32;37277;-81
2022/08/31 04:46:07;;;;;;;;;;;;;;;22.32;55.76;99929.31;4385170;32;37922;-81
2022/08/31 04:48:35;;;;;;;;;;;;;;;22.23;55.87;99930.44;4382200;32;37723;-81
2022/08/31 04:51:04;;;;;;;;;;;;;;;22.20;56.04;99930.53;4353397;32;39407;-81
2022/08/31 04:53:31;;;;;;;;;;;;;;;22.28;55.46;99934.69;4355648;32;36812;-84
2022/08/31 04:56:02;;;;;;;;;;;;;;;22.19;56.03;99934.94;4369542;32;40117;-82
2022/08/31 04:58:29;;;;;;;;;;;;;;;22.17;56.20;99942.03;4371471;32;38235;-82
2022/08/31 05:00:57;;;;;;;;;;;;;;;22.28;54.97;99929.41;4375881;32;38346;-82
2022/08/31 05:03:25;;;;;;;;;;;;;;;22.33;55.92;99933.66;4383447;32;37708;-82
2022/08/31 05:05:52;;;;;;;;;;;;;;;22.39;54.56;99925.56;4386365;32;38302;-82
2022/08/31 05:08:20;;;;;;;;;;;;;;;22.47;54.61;99934.13;4377632;32;38381;-83
2022/08/31 05:10:47;;;;;;;;;;;;;;;22.27;55.87;99927.69;4383506;32;39668;-83
2022/08/31 05:13:16;;;;;;;;;;;;;;;22.48;54.95;99938.47;4386326;32;36779;-82
2022/08/31 05:15:44;;;;;;;;;;;;;;;22.58;54.42;99937.25;4395313;32;39561;-83
2022/08/31 05:18:12;;;;;;;;;;;;;;;22.54;55.83;99934.78;4384898;32;37942;-82
2022/08/31 05:20:41;;;;;;;;;;;;;;;22.68;55.21;99930.78;4383589;32;38274;-83
2022/08/31 05:23:10;;;;;;;;;;;;;;;22.68;55.04;99943.97;4250081;32;36790;-83
2022/08/31 05:25:39;;;;;;;;;;;;;;;22.76;55.43;99941.09;4390393;32;49019;-83
2022/08/31 05:28:07;;;;;;;;;;;;;;;22.69;55.47;99940.44;4380168;32;38083;-83
2022/08/31 05:30:35;;;;;;;;;;;;;;;22.82;55.37;99934.78;4389172;32;38699;-83
2022/08/31 05:33:03;;;;;;;;;;;;;;;22.87;55.60;99938.09;4385897;32;37566;-83
2022/08/31 05:35:30;;;;;;;;;;;;;;;22.97;55.58;99939.56;4384322;32;39067;-83
2022/08/31 05:37:58;;;;;;;;;;;;;;;22.93;55.81;99938.78;4382573;32;38278;-83
2022/08/31 05:40:26;;;;;;;;;;;;;;;22.95;55.92;99939.63;4384087;32;38285;-83
2022/08/31 05:42:58;;;;;;;;;;;;;;;23.08;55.73;99940.06;4381583;32;37591;-83
2022/08/31 05:45:25;;;;;;;;;;;;;;;23.15;55.17;99938.09;4384809;32;39003;-84
2022/08/31 05:47:53;;;;;;;;;;;;;;;23.30;55.03;99936.69;4375073;32;38511;-86
2022/08/31 05:50:20;;;;;;;;;;;;;;;23.40;54.69;99936.31;4384066;32;38211;-84
2022/08/31 05:52:48;;;;;;;;;;;;;;;23.47;54.00;99938.75;4372094;32;37111;-84
2022/08/31 05:55:16;;;;;;;;;;;;;;;23.58;53.56;99937.47;4369554;32;38060;-85
2022/08/31 05:57:43;;;;;;;;;;;;;;;23.54;52.80;99930.53;4383907;32;38830;-84
2022/08/31 06:00:11;;;;;;;;;;;;;;;23.51;51.44;99940.34;4376793;32;39470;-83
2022/08/31 06:02:38;;;;;;;;;;;;;;;23.64;51.91;99936.34;4373554;32;37268;-84
2022/08/31 06:05:07;;;;;;;;;;;;;;;23.74;51.98;99936.91;4376332;32;36538;-85
2022/08/31 06:07:35;;;;;;;;;;;;;;;23.82;51.84;99942.78;4389429;32;38399;-84
2022/08/31 06:10:04;;;;;;;;;;;;;;;23.96;51.55;99943.13;4380205;32;38483;-84
2022/08/31 06:12:33;;;;;;;;;;;;;;;23.96;51.85;99943.13;4227879;32;5003631;-84
2022/08/31 06:15:04;;;;;;;;;;;;;;;24.10;52.09;99951.41;4081132;32;10000276;-85
2022/08/31 06:17:31;;;;;;;;;;;;;;;24.08;51.50;99953.25;4372605;32;38665;-83
2022/08/31 06:19:58;;;;;;;;;;;;;;;24.16;51.01;99949.47;4367117;32;39170;-83
2022/08/31 06:22:26;;;;;;;;;;;;;;;24.20;50.71;99951.06;4372772;32;38414;-85
2022/08/31 06:24:54;;;;;;;;;;;;;;;24.25;49.84;99949.09;4383168;32;36745;-83
2022/08/31 06:27:21;;;;;;;;;;;;;;;24.54;49.60;99951.53;4384511;32;38162;-83
2022/08/31 06:29:49;;;;;;;;;;;;;;;24.72;48.58;99955.19;4379914;32;38610;-84
2022/08/31 06:32:16;;;;;;;;;;;;;;;24.80;46.33;99957.56;4385658;32;39358;-84
2022/08/31 06:34:46;;;;;;;;;;;;;;;25.24;45.27;99952.25;4382883;32;37350;-85
2022/08/31 06:37:14;;;;;;;;;;;;;;;25.58;44.17;99950.75;4369382;32;37444;-82
2022/08/31 06:39:46;;;;;;;;;;;;;;;26.00;44.07;99963.06;4383166;32;38556;-82
2022/08/31 06:42:13;;;;;;;;;;;;;;;26.26;42.95;99949.47;4385281;32;37906;-82
2022/08/31 06:44:44;;;;;;;;;;;;;;;26.57;43.04;99948.88;4383857;32;36888;-81
2022/08/31 06:47:12;;;;;;;;;;;;;;;26.77;41.79;99950.59;4382002;32;37925;-82
2022/08/31 06:49:40;;;;;;;;;;;;;;;26.97;41.86;99944.28;4387508;32;38846;-82
2022/08/31 06:52:07;;;;;;;;;;;;;;;27.25;39.53;99946.44;4383902;32;38269;-82
2022/08/31 06:54:35;;;;;;;;;;;;;;;27.47;37.26;99946.19;4384179;32;37082;-83
2022/08/31 06:57:04;;;;;;;;;;;;;;;27.64;38.19;99953.28;4383805;32;37505;-84
2022/08/31 06:59:32;;;;;;;;;;;;;;;27.94;37.38;99955.25;4382516;32;37878;-82
2022/08/31 07:02:00;;;;;;;;;;;;;;;28.07;37.03;99956.31;4370388;32;38919;-81
2022/08/31 07:04:36;;;;;;;;;;;;;;;28.36;38.42;99962.69;4356225;32;37049;-83
2022/08/31 07:07:04;;;;;;;;;;;;;;;28.65;36.10;99963.75;4039432;32;5002134;-85
2022/08/31 07:09:31;;;;;;;;;;;;;;;28.69;34.97;99962.66;4383835;32;39638;-84
2022/08/31 07:11:58;;;;;;;;;;;;;;;28.93;34.99;99968.34;4369130;32;38508;-83
2022/08/31 07:14:26;;;;;;;;;;;;;;;29.11;35.26;99966.47;4383936;32;36486;-83
2022/08/31 07:16:55;;;;;;;;;;;;;;;29.40;34.94;99966.56;4385451;32;38619;-84
2022/08/31 07:19:22;;;;;;;;;;;;;;;29.50;34.99;99967.72;4370552;32;38888;-84
2022/08/31 07:21:54;;;;;;;;;;;;;;;29.69;35.65;99970.16;4383336;32;37528;-85
2022/08/31 07:24:23;;;;;;;;;;;;;;;29.76;35.52;99973.28;4384242;32;36996;-84
2022/08/31 07:26:53;;;;;;;;;;;;;;;30.08;34.56;99980.16;4370277;32;39542;-82
2022/08/31 07:29:22;;;;;;;;;;;;;;;30.05;33.44;99972.34;4353277;32;39251;-84
2022/08/31 07:31:49;;;;;;;;;;;;;;;30.22;33.52;99974.00;4370132;32;39363;-84
2022/08/31 07:34:24;;;;;;;;;;;;;;;30.54;33.49;99971.94;4382661;32;36664;-84
2022/08/31 07:42:37;;;;;;;;;;;;;;;30.51;33.95;99972.13;4371338;32;38833;-85
2022/08/31 07:45:06;;;;;;;;;;;;;;;30.71;32.43;99978.84;4365417;32;36446;-86
2022/08/31 07:47:44;;;;;;;;;;;;;;;30.86;32.95;99971.69;4340974;32;39222;-84
2022/08/31 07:50:13;;;;;;;;;;;;;;;30.91;33.16;99958.84;4382141;32;38453;-83
2022/08/31 07:52:46;;;;;;;;;;;;;;;30.93;32.93;99964.97;4357803;32;37800;-85
2022/08/31 07:55:15;;;;;;;;;;;;;;;31.22;33.38;99962.16;4354041;32;36719;-82
2022/08/31 07:57:44;;;;;;;;;;;;;;;31.19;32.79;99957.00;4096640;32;10001231;-85
2022/08/31 08:00:13;;;;;;;;;;;;;;;31.40;32.41;99950.22;4371759;32;20382;-85
2022/08/31 08:02:45;;;;;;;;;;;;;;;31.62;31.88;99954.06;4371369;32;39204;-82
2022/08/31 08:05:21;;;;;;;;;;;;;;;31.71;30.84;99953.44;4382138;32;36416;-87
2022/08/31 08:07:54;;;;;;;;;;;;;;;31.82;31.94;99956.22;4383658;32;37897;-83
2022/08/31 08:10:22;;;;;;;;;;;;;;;31.56;32.31;99949.13;4381269;32;40678;-86
2022/08/31 08:12:55;;;;;;;;;;;;;;;31.76;31.60;99955.81;4370174;32;38177;-86
2022/08/31 08:15:23;;;;;;;;;;;;;;;31.66;31.85;99950.25;4360525;32;35715;-85
2022/08/31 08:17:51;;;;;;;;;;;;;;;31.71;29.88;99938.22;4381488;32;37801;-87
2022/08/31 08:20:19;;;;;;;;;;;;;;;31.74;31.63;99939.84;4382918;32;38387;-84
2022/08/31 08:23:12;;;;;;;;;;;;;;;31.78;30.07;99941.34;4374337;32;38555;-87
2022/08/31 08:25:42;;;;;;;;;;;;;;;32.02;29.40;99945.94;4351592;32;36734;-91
2022/08/31 08:28:16;;;;;;;;;;;;;;;31.70;29.58;99941.03;4067048;32;10007537;-84
2022/08/31 08:31:04;;;;;;;;;;;;;;;31.66;33.05;99939.53;4385060;32;38455;-83
2022/08/31 08:33:33;;;;;;;;;;;;;;;32.12;29.69;99930.94;4383562;32;39322;-82
2022/08/31 08:36:01;;;;;;;;;;;;;;;32.24;28.84;99935.41;4383481;32;38669;-83
2022/08/31 08:38:29;;;;;;;;;;;;;;;32.24;29.70;99935.41;4370864;32;36657;-84
2022/08/31 08:41:05;;;;;;;;;;;;;;;32.20;29.78;99933.91;4371690;32;38104;-82
2022/08/31 08:43:34;;;;;;;;;;;;;;;32.13;28.76;99935.31;4371288;32;37759;-81
2022/08/31 08:46:02;;;;;;;;;;;;;;;32.15;28.63;99936.91;4371305;32;39055;-82
2022/08/31 08:48:50;;;;;;;;;;;;;;;32.26;28.71;99933.47;4369512;32;37440;-81
2022/08/31 08:51:23;;;;;;;;;;;;;;;32.13;28.69;99927.28;4365259;32;37646;-82
2022/08/31 08:53:53;;;;;;;;;;;;;;;31.81;29.94;99930.41;4385319;32;38459;-82
2022/08/31 08:56:22;;;;;;;;;;;;;;;32.22;29.81;99926.59;4371129;32;39498;-82
2022/08/31 08:59:01;;;;;;;;;;;;;;;32.18;28.79;99925.13;4372372;32;36708;-82
2022/08/31 09:01:29;;;;;;;;;;;;;;;32.35;30.90;99927.41;4384817;32;38075;-80
2022/08/31 09:04:02;;;;;;;;;;;;;;;32.47;28.76;99924.84;4370808;32;38126;-83
2022/08/31 09:06:53;;;;;;;;;;;;;;;32.37;28.40;99930.84;4384894;32;39809;-84
2022/08/31 09:09:28;;;;;;;;;;;;;;;32.33;28.41;99918.66;4371491;32;37384;-85
2022/08/31 09:12:07;;;;;;;;;;;;;;;32.30;30.42;99918.88;4371052;32;38364;-84
2022/08/31 09:14:46;;;;;;;;;;;;;;;32.10;31.97;99916.78;4386580;32;37998;-81
2022/08/31 09:17:23;;;;;;;;;;;;;;;32.84;27.25;99913.09;4384644;32;38512;-81
2022/08/31 09:19:58;;;;;;;;;;;;;;;32.58;26.71;99911.50;4371400;32;37404;-81
2022/08/31 09:22:27;;;;;;;;;;;;;;;32.84;28.45;99913.09;4385890;32;38689;-81
2022/08/31 09:24:58;;;;;;;;;;;;;;;32.89;29.24;99900.19;4385148;32;39338;-81
2022/08/31 09:27:37;;;;;;;;;;;;;;;32.98;28.65;99900.50;4384870;32;39051;-82
2022/08/31 09:30:05;;;;;;;;;;;;;;;33.12;28.37;99894.91;4371409;32;37596;-82
2022/08/31 09:32:34;;;;;;;;;;;;;;;32.78;28.35;99896.63;4384924;32;37616;-82
2022/08/31 09:35:08;;;;;;;;;;;;;;;32.57;28.20;99893.72;4371042;32;38176;-82
2022/08/31 09:37:44;;;;;;;;;;;;;;;32.87;27.32;99886.06;4384474;32;38326;-82
2022/08/31 09:40:20;;;;;;;;;;;;;;;32.70;29.38;99886.44;4383454;32;36596;-83
2022/08/31 09:43:01;;;;;;;;;;;;;;;32.79;28.05;99888.44;4384456;32;38616;-82
2022/08/31 09:45:34;;;;;;;;;;;;;;;33.01;28.52;99886.84;4384509;32;37634;-82
2022/08/31 09:48:08;;;;;;;;;;;;;;;33.02;25.76;99883.19;4367323;32;39449;-82
2022/08/31 09:50:43;;;;;;;;;;;;;;;33.13;27.33;99874.34;4372086;32;36595;-82
2022/08/31 09:56:04;;;;;;;;;;;;;;;33.39;26.46;99880.34;4371784;32;39111;-82
2022/08/31 09:58:32;;;;;;;;;;;;;;;33.26;28.01;99870.56;4364468;32;38997;-83
2022/08/31 10:01:11;;;;;;;;;;;;;;;33.24;25.55;99875.19;4384368;32;36659;-83
2022/08/31 10:03:43;;;;;;;;;;;;;;;33.22;25.22;99863.75;4384936;32;38289;-83
2022/08/31 10:06:34;;;;;;;;;;;;;;;33.37;26.14;99871.56;4366222;32;37156;-83
2022/08/31 10:09:02;;;;;;;;;;;;;;;33.08;26.27;99861.25;4371653;32;38556;-82
2022/08/31 10:11:30;;;;;;;;;;;;;;;33.17;26.07;99860.53;4370758;32;37733;-82
2022/08/31 10:14:06;;;;;;;;;;;;;;;32.94;26.52;99864.13;4367878;32;39337;-83
2022/08/31 10:16:35;;;;;;;;;;;;;;;33.48;27.07;99852.78;4373484;32;37938;-81
2022/08/31 10:19:03;;;;;;;;;;;;;;;33.75;25.93;99853.28;4378268;32;38983;-81
2022/08/31 10:21:38;;;;;;;;;;;;;;;33.67;26.11;99846.84;4377082;32;37669;-81
2022/08/31 10:24:27;;;;;;;;;;;;;;;33.76;25.76;99855.00;4374918;32;38351;-81
2022/08/31 10:27:17;;;;;;;;;;;;;;;33.68;25.73;99849.37;4378799;32;38461;-81
2022/08/31 10:29:50;;;;;;;;;;;;;;;33.53;25.63;99840.72;4362563;32;37899;-81
2022/08/31 10:32:26;;;;;;;;;;;;;;;33.41;25.96;99835.44;4376447;32;36556;-81
2022/08/31 10:35:04;;;;;;;;;;;;;;;33.55;26.01;99837.91;4378262;32;38249;-82
2022/08/31 10:37:35;;;;;;;;;;;;;;;33.44;25.84;99837.88;4363019;32;37626;-81
2022/08/31 10:40:08;;;;;;;;;;;;;;;33.23;25.81;99837.75;4370459;32;38835;-81
2022/08/31 10:42:40;;;;;;;;;;;;;;;32.85;25.89;99828.13;4352680;32;36523;-82
2022/08/31 10:45:13;;;;;;;;;;;;;;;32.89;25.80;99825.09;4365152;32;37801;-80
2022/08/31 10:47:46;;;;;;;;;;;;;;;32.68;26.72;99825.91;4363801;32;38258;-81
2022/08/31 10:50:16;;;;;;;;;;;;;;;32.99;25.93;99821.72;4377205;32;38882;-81
2022/08/31 10:52:56;;;;;;;;;;;;;;;32.99;27.42;99824.41;4354576;32;36564;-81
2022/08/31 10:55:45;;;;;;;;;;;;;;;32.92;27.79;99817.78;4369142;32;37812;-80
2022/08/31 10:58:24;;;;;;;;;;;;;;;33.39;25.97;99816.78;4383251;32;38240;-81
2022/08/31 11:00:55;;;;;;;;;;;;;;;33.50;25.61;99807.91;4370456;32;38936;-80
2022/08/31 11:03:41;;;;;;;;;;;;;;;33.26;25.31;99810.69;4370213;32;37566;-81
2022/08/31 11:06:08;;;;;;;;;;;;;;;33.39;24.94;99807.88;4383657;32;37922;-81
2022/08/31 11:08:35;;;;;;;;;;;;;;;33.78;25.41;99811.91;4383286;32;39600;-81
2022/08/31 11:11:05;;;;;;;;;;;;;;;33.60;26.18;99806.22;4382952;32;38702;-80
2022/08/31 11:13:37;;;;;;;;;;;;;;;33.89;25.36;99808.34;4363048;32;36235;-80
2022/08/31 11:16:07;;;;;;;;;;;;;;;33.99;26.36;99804.78;4377719;32;37661;-79
2022/08/31 11:18:39;;;;;;;;;;;;;;;34.05;26.50;99803.47;4382553;32;38338;-80
2022/08/31 11:21:23;;;;;;;;;;;;;;;33.46;24.65;99801.03;4370858;32;38686;-80
2022/08/31 11:23:57;;;;;;;;;;;;;;;33.84;24.37;99799.81;4363766;32;36812;-80
2022/08/31 11:26:25;;;;;;;;;;;;;;;32.73;27.52;99787.03;4356988;32;38817;-80
2022/08/31 11:28:57;;;;;;;;;;;;;;;33.51;26.02;99782.78;4373025;32;38264;-81
2022/08/31 11:31:26;;;;;;;;;;;;;;;33.63;24.92;99797.88;4361923;32;38763;-81
2022/08/31 11:33:56;;;;;;;;;;;;;;;33.76;25.23;99779.81;4367172;32;37830;-81
2022/08/31 11:36:41;;;;;;;;;;;;;;;33.72;26.40;99775.66;4372083;32;38454;-82
2022/08/31 11:39:34;;;;;;;;;;;;;;;33.65;24.71;99777.12;4376973;32;38219;-82
2022/08/31 11:42:03;;;;;;;;;;;;;;;33.75;25.28;99770.03;4373491;32;38441;-83
2022/08/31 11:44:32;;;;;;;;;;;;;;;33.73;25.59;99772.00;4371330;32;36533;-82
2022/08/31 11:47:00;;;;;;;;;;;;;;;33.89;24.85;99776.97;4381776;32;36121;-82
2022/08/31 11:49:35;;;;;;;;;;;;;;;33.76;24.76;99774.44;4370968;32;38114;-82
2022/08/31 11:52:07;;;;;;;;;;;;;;;34.22;25.03;99767.97;4383535;32;38655;-81
2022/08/31 11:54:40;;;;;;;;;;;;;;;33.98;24.76;99769.97;4369633;32;36806;-82
2022/08/31 11:57:09;;;;;;;;;;;;;;;34.26;25.12;99774.78;4381723;32;38045;-82
2022/08/31 11:59:37;;;;;;;;;;;;;;;34.23;24.79;99764.28;4364806;32;39347;-82
2022/08/31 12:02:23;;;;;;;;;;;;;;;34.24;24.61;99766.03;4356675;32;39311;-82
2022/08/31 12:04:57;;;;;;;;;;;;;;;34.37;23.75;99765.00;4370212;32;37534;-82
2022/08/31 12:07:34;;;;;;;;;;;;;;;34.44;24.46;99763.47;4388830;32;37971;-81
2022/08/31 12:10:05;;;;;;;;;;;;;;;34.07;24.08;99769.25;4382846;32;37734;-81
2022/08/31 12:12:52;;;;;;;;;;;;;;;33.48;24.61;99766.91;4364995;32;38955;-82
2022/08/31 12:15:38;;;;;;;;;;;;;;;34.06;23.77;99762.19;4379546;32;35856;-82
2022/08/31 12:18:08;;;;;;;;;;;;;;;33.60;24.76;99765.94;4375450;32;37442;-82
2022/08/31 12:23:43;;;;;;;;;;;;;;;33.26;26.62;99757.87;4378913;32;38137;-83
2022/08/31 12:26:20;;;;;;;;;;;;;;;33.17;24.62;99753.22;4377591;32;37313;-82
2022/08/31 12:29:05;;;;;;;;;;;;;;;33.46;24.94;99748.22;4375158;32;37852;-82
2022/08/31 12:31:34;;;;;;;;;;;;;;;33.51;25.54;99746.06;4353457;32;883631;-82
2022/08/31 12:34:06;;;;;;;;;;;;;;;33.31;25.23;99742.28;4361385;32;38127;-81
2022/08/31 12:36:35;;;;;;;;;;;;;;;32.56;26.52;99741.91;4357227;32;36673;-82
2022/08/31 12:39:09;;;;;;;;;;;;;;;32.65;27.22;99741.22;4380916;32;39075;-82
2022/08/31 12:41:42;;;;;;;;;;;;;;;33.34;26.26;99747.41;4377720;32;37867;-82
2022/08/31 12:44:09;;;;;;;;;;;;;;;33.39;25.29;99735.44;4374183;32;38356;-83
2022/08/31 12:46:56;;;;;;;;;;;;;;;33.25;26.09;99733.84;4356477;32;35349;-82
2022/08/31 12:49:38;;;;;;;;;;;;;;;33.29;26.00;99729.94;4377014;32;38330;-82
2022/08/31 12:52:18;;;;;;;;;;;;;;;33.15;26.70;99732.88;4372961;32;38928;-83
2022/08/31 12:54:46;;;;;;;;;;;;;;;33.25;26.12;99729.34;4364032;32;38708;-82
2022/08/31 12:57:31;;;;;;;;;;;;;;;33.25;25.76;99723.97;4376717;32;37454;-83
2022/08/31 13:00:07;;;;;;;;;;;;;;;33.13;26.59;99718.75;4377533;32;37810;-83
2022/08/31 13:02:40;;;;;;;;;;;;;;;33.21;27.06;99722.50;4378618;32;38557;-83
2022/08/31 13:05:23;;;;;;;;;;;;;;;33.34;25.68;99717.88;4366975;32;38606;-82
2022/08/31 13:07:51;;;;;;;;;;;;;;;33.14;26.41;99721.28;4355935;32;35571;-82
2022/08/31 13:10:29;;;;;;;;;;;;;;;33.28;24.86;99723.72;4370071;32;38362;-82
2022/08/31 13:12:58;;;;;;;;;;;;;;;33.30;26.48;99726.28;4370017;32;38839;-82
2022/08/31 13:15:45;;;;;;;;;;;;;;;33.29;25.15;99722.75;4365191;32;38763;-83
2022/08/31 13:18:14;;;;;;;;;;;;;;;33.24;25.51;99722.25;4375169;32;38041;-81
2022/08/31 13:20:42;;;;;;;;;;;;;;;33.28;25.56;99717.50;4376327;32;38724;-81